createdAt,value
2022-08-30T00:02:43.751Z,5.50
2022-08-30T00:05:30.968Z,5.30
2022-08-30T00:08:36.897Z,5.20
2022-08-30T00:11:25.539Z,6.10
2022-08-30T00:14:29.711Z,6.20
2022-08-30T00:17:15.668Z,5.70
2022-08-30T00:20:23.575Z,5.80
2022-08-30T00:23:09.101Z,5.50
2022-08-30T00:25:52.611Z,5.30
2022-08-30T00:28:49.976Z,5.30
2022-08-30T00:31:36.001Z,6.30
2022-08-30T00:34:24.632Z,6.00
2022-08-30T00:37:13.701Z,5.70
2022-08-30T00:39:59.253Z,5.20
2022-08-30T00:42:50.098Z,6.00
2022-08-30T00:45:45.326Z,5.90
2022-08-30T00:48:31.509Z,6.00
2022-08-30T00:51:26.486Z,6.30
2022-08-30T00:54:20.106Z,6.50
2022-08-30T00:57:16.920Z,6.50
2022-08-30T01:00:09.595Z,5.90
2022-08-30T01:02:53.072Z,5.90
2022-08-30T01:05:45.659Z,5.80
2022-08-30T01:08:31.787Z,6.50
2022-08-30T01:11:22.535Z,6.00
2022-08-30T01:14:11.741Z,6.50
2022-08-30T01:16:57.918Z,5.70
2022-08-30T01:20:10.309Z,5.90
2022-08-30T01:23:04.666Z,5.20
2022-08-30T01:25:52.841Z,5.30
2022-08-30T01:28:39.836Z,5.30
2022-08-30T01:31:26.278Z,5.10
2022-08-30T01:34:10.152Z,5.40
2022-08-30T01:37:02.242Z,4.90
2022-08-30T01:39:47.198Z,4.40
2022-08-30T01:42:30.551Z,4.70
2022-08-30T01:45:14.614Z,4.50
2022-08-30T01:48:03.776Z,4.30
2022-08-30T01:50:50.205Z,4.90
2022-08-30T01:53:45.237Z,4.20
2022-08-30T01:56:33.854Z,4.40
2022-08-30T01:59:20.225Z,4.40
2022-08-30T02:02:04.878Z,4.20
2022-08-30T02:04:48.182Z,4.70
2022-08-30T02:07:36.479Z,4.50
2022-08-30T02:10:20.994Z,4.50
2022-08-30T02:13:06.385Z,4.40
2022-08-30T02:15:49.627Z,4.20
2022-08-30T02:18:41.219Z,3.90
2022-08-30T02:21:30.702Z,4.30
2022-08-30T02:24:17.521Z,4.10
2022-08-30T02:27:00.947Z,3.70
2022-08-30T02:29:49.775Z,3.10
2022-08-30T02:32:32.958Z,3.60
2022-08-30T02:35:21.629Z,3.10
2022-08-30T02:38:05.633Z,3.20
2022-08-30T02:40:54.538Z,3.30
2022-08-30T02:43:50.156Z,3.50
2022-08-30T02:46:36.357Z,3.10
2022-08-30T02:49:35.456Z,3.10
2022-08-30T02:52:27.876Z,2.80
2022-08-30T02:58:08.580Z,3.20
2022-08-30T03:00:54.408Z,3.20
2022-08-30T03:03:38.124Z,3.50
2022-08-30T03:06:23.908Z,3.60
2022-08-30T03:09:33.226Z,3.70
2022-08-30T03:12:19.157Z,3.40
2022-08-30T03:15:06.515Z,3.60
2022-08-30T03:17:54.218Z,3.80
2022-08-30T03:20:41.503Z,3.80
2022-08-30T03:23:30.321Z,4.50
2022-08-30T03:26:16.558Z,3.80
2022-08-30T03:29:09.828Z,4.70
2022-08-30T03:32:00.582Z,4.00
2022-08-30T03:34:54.146Z,4.40
2022-08-30T03:37:40.650Z,3.80
2022-08-30T03:40:44.138Z,4.10
2022-08-30T03:43:33.252Z,3.90
2022-08-30T03:46:25.342Z,3.90
2022-08-30T03:49:15.615Z,3.90
2022-08-30T03:52:01.873Z,4.10
2022-08-30T03:55:08.716Z,3.60
2022-08-30T03:57:54.729Z,3.50
2022-08-30T04:00:45.207Z,4.60
2022-08-30T04:03:31.721Z,4.50
2022-08-30T04:06:20.836Z,3.90
2022-08-30T04:09:29.832Z,4.90
2022-08-30T04:12:22.725Z,4.40
2022-08-30T04:15:09.326Z,4.40
2022-08-30T04:18:12.801Z,4.10
2022-08-30T04:21:27.486Z,3.80
2022-08-30T04:24:15.050Z,3.90
2022-08-30T04:27:01.678Z,4.30
2022-08-30T04:30:05.517Z,4.30
2022-08-30T04:33:04.515Z,4.10
2022-08-30T04:35:53.130Z,4.30
2022-08-30T04:38:59.813Z,3.90
2022-08-30T04:41:54.387Z,3.60
2022-08-30T04:44:47.509Z,4.50
2022-08-30T04:47:53.917Z,4.90
2022-08-30T04:50:49.312Z,4.80
2022-08-30T04:53:56.421Z,5.10
2022-08-30T04:56:44.996Z,5.70
2022-08-30T04:59:58.494Z,5.10
2022-08-30T05:02:50.671Z,5.20
2022-08-30T05:05:56.735Z,5.60
2022-08-30T05:08:48.587Z,5.90
2022-08-30T05:11:51.804Z,6.20
2022-08-30T05:14:35.198Z,5.30
2022-08-30T05:18:01.662Z,7.10
2022-08-30T05:21:10.533Z,6.50
2022-08-30T05:24:04.476Z,6.30
2022-08-30T05:26:57.661Z,5.40
2022-08-30T05:29:46.345Z,5.70
2022-08-30T05:32:34.193Z,4.80
2022-08-30T05:35:30.235Z,4.70
2022-08-30T05:38:36.747Z,4.80
2022-08-30T05:41:43.028Z,4.30
2022-08-30T05:44:27.075Z,4.20
2022-08-30T05:47:30.618Z,3.40
2022-08-30T05:50:38.146Z,3.80
2022-08-30T05:53:24.603Z,4.00
2022-08-30T05:56:52.588Z,3.60
2022-08-30T05:59:35.722Z,3.50
2022-08-30T06:02:37.791Z,3.40
2022-08-30T06:05:23.834Z,3.00
2022-08-30T06:08:09.955Z,3.30
2022-08-30T06:10:59.457Z,3.20
2022-08-30T06:13:52.377Z,3.20
2022-08-30T06:16:38.978Z,2.60
2022-08-30T06:19:24.828Z,3.10
2022-08-30T06:22:28.014Z,3.30
2022-08-30T06:25:16.955Z,3.10
2022-08-30T06:28:05.769Z,3.40
2022-08-30T06:30:52.403Z,3.10
2022-08-30T06:34:08.035Z,2.60
2022-08-30T06:36:56.089Z,2.60
2022-08-30T06:39:39.134Z,2.70
2022-08-30T06:42:30.681Z,2.50
2022-08-30T06:45:16.873Z,2.80
2022-08-30T06:48:11.794Z,2.30
2022-08-30T06:53:43.709Z,2.00
2022-08-30T06:56:31.209Z,1.80
2022-08-30T06:59:19.772Z,1.50
2022-08-30T07:02:06.540Z,1.10
2022-08-30T07:04:52.854Z,1.50
2022-08-30T07:07:39.938Z,1.60
2022-08-30T07:10:22.986Z,1.50
2022-08-30T07:13:06.005Z,2.00
2022-08-30T07:15:52.137Z,1.60
2022-08-30T07:18:53.622Z,1.50
2022-08-30T07:21:40.234Z,2.40
2022-08-30T07:24:25.081Z,1.80
2022-08-30T07:27:16.860Z,2.50
2022-08-30T07:30:02.785Z,1.60
2022-08-30T07:32:45.947Z,1.60
2022-08-30T07:35:31.667Z,1.60
2022-08-30T07:38:23.952Z,1.60
2022-08-30T07:43:53.911Z,1.80
2022-08-30T07:46:40.738Z,1.00
2022-08-30T07:49:24.328Z,1.70
2022-08-30T07:52:23.426Z,1.40
2022-08-30T07:55:10.181Z,1.30
2022-08-30T07:57:56.351Z,1.40
2022-08-30T08:00:48.416Z,1.50
2022-08-30T08:03:34.847Z,1.30
2022-08-30T08:06:40.000Z,1.20
2022-08-30T08:09:23.024Z,1.40
2022-08-30T08:12:07.848Z,1.00
2022-08-30T08:14:51.018Z,1.70
2022-08-30T08:17:54.674Z,1.40
2022-08-30T08:20:48.498Z,1.10
2022-08-30T08:23:41.775Z,1.10
2022-08-30T08:26:27.263Z,1.60
2022-08-30T08:29:19.324Z,1.10
2022-08-30T08:32:02.552Z,1.30
2022-08-30T08:34:54.583Z,1.00
2022-08-30T08:37:41.500Z,1.50
2022-08-30T08:40:33.377Z,1.50
2022-08-30T08:43:21.642Z,1.20
2022-08-30T08:46:10.626Z,1.20
2022-08-30T08:49:06.464Z,1.20
2022-08-30T08:52:13.618Z,0.80
2022-08-30T08:55:12.439Z,1.00
2022-08-30T08:58:06.933Z,1.00
2022-08-30T09:00:56.835Z,0.90
2022-08-30T09:03:44.312Z,1.30
2022-08-30T09:07:02.865Z,0.80
2022-08-30T09:09:52.595Z,1.90
2022-08-30T09:12:41.423Z,0.90
2022-08-30T09:15:30.215Z,2.00
2022-08-30T09:18:26.803Z,0.90
2022-08-30T09:21:20.308Z,1.90
2022-08-30T09:24:26.194Z,1.10
2022-08-30T09:27:23.913Z,0.90
2022-08-30T09:30:18.372Z,1.30
2022-08-30T09:33:05.743Z,0.60
2022-08-30T09:35:52.263Z,0.80
2022-08-30T09:39:05.159Z,0.90
2022-08-30T09:41:54.105Z,1.00
2022-08-30T09:44:47.684Z,1.20
2022-08-30T09:47:31.892Z,1.90
2022-08-30T09:50:18.688Z,1.50
2022-08-30T09:53:24.543Z,0.90
2022-08-30T09:56:39.894Z,0.80
2022-08-30T09:59:43.055Z,1.80
2022-08-30T10:03:06.166Z,1.10
2022-08-30T10:06:11.139Z,0.90
2022-08-30T10:09:37.709Z,1.10
2022-08-30T10:12:38.145Z,0.90
2022-08-30T10:15:26.800Z,1.40
2022-08-30T10:18:32.969Z,1.10
2022-08-30T10:27:49.014Z,1.20
2022-08-30T10:30:39.173Z,0.90
2022-08-30T10:33:37.547Z,0.70
2022-08-30T10:36:27.442Z,0.90
2022-08-30T10:39:18.234Z,1.50
2022-08-30T10:42:17.991Z,0.60
2022-08-30T10:45:07.207Z,0.50
2022-08-30T10:48:06.819Z,1.00
2022-08-30T10:50:53.838Z,1.80
2022-08-30T10:53:45.942Z,1.00
2022-08-30T10:56:29.800Z,1.20
2022-08-30T10:59:20.855Z,1.10
2022-08-30T11:02:19.160Z,0.70
2022-08-30T11:05:24.139Z,0.70
2022-08-30T11:08:25.711Z,0.70
2022-08-30T11:11:36.944Z,0.50
2022-08-30T11:14:25.382Z,0.90
2022-08-30T11:17:32.341Z,1.60
2022-08-30T11:20:36.506Z,2.70
2022-08-30T11:23:22.183Z,1.70
2022-08-30T11:26:13.966Z,1.10
2022-08-30T11:29:05.798Z,0.90
2022-08-30T11:31:49.797Z,1.60
2022-08-30T11:34:45.288Z,1.30
2022-08-30T11:37:44.409Z,0.90
2022-08-30T11:40:48.373Z,1.90
2022-08-30T11:43:36.879Z,2.40
2022-08-30T11:46:29.205Z,1.90
2022-08-30T11:49:15.519Z,1.50
2022-08-30T11:52:30.951Z,2.20
2022-08-30T11:55:26.445Z,2.00
2022-08-30T11:58:44.806Z,1.20
2022-08-30T12:01:50.574Z,2.30
2022-08-30T12:04:56.398Z,2.50
2022-08-30T12:08:02.053Z,2.50
2022-08-30T12:10:57.235Z,1.60
2022-08-30T12:13:43.144Z,1.70
2022-08-30T12:17:06.443Z,1.90
2022-08-30T12:19:50.609Z,1.80
2022-08-30T12:22:38.035Z,1.40
2022-08-30T12:25:40.508Z,1.30
2022-08-30T12:31:23.054Z,1.40
2022-08-30T12:34:07.545Z,1.30
2022-08-30T12:37:03.053Z,1.10
2022-08-30T12:39:53.806Z,1.20
2022-08-30T12:43:09.935Z,1.00
2022-08-30T12:46:07.435Z,1.20
2022-08-30T12:49:11.833Z,1.00
2022-08-30T12:51:56.421Z,0.90
2022-08-30T12:54:42.824Z,0.90
2022-08-30T12:58:04.727Z,2.50
2022-08-30T13:01:01.721Z,1.10
2022-08-30T13:03:59.838Z,1.00
2022-08-30T13:07:02.844Z,0.50
2022-08-30T13:10:03.071Z,0.70
2022-08-30T13:13:37.497Z,0.80
2022-08-30T13:16:34.819Z,0.70
2022-08-30T13:20:02.203Z,1.50
2022-08-30T13:23:22.984Z,0.90
2022-08-30T13:26:08.944Z,0.70
2022-08-30T13:29:01.507Z,0.80
2022-08-30T13:31:44.849Z,0.60
2022-08-30T13:34:28.071Z,1.10
2022-08-30T13:40:22.276Z,1.30
2022-08-30T13:43:05.520Z,0.90
2022-08-30T13:45:49.212Z,0.70
2022-08-30T13:48:33.712Z,1.00
2022-08-30T13:51:16.698Z,0.60
2022-08-30T13:54:02.642Z,1.40
2022-08-30T13:56:45.662Z,2.50
2022-08-30T13:59:33.242Z,1.30
2022-08-30T14:02:18.729Z,0.80
2022-08-30T14:05:03.365Z,0.90
2022-08-30T14:07:46.456Z,0.50
2022-08-30T14:10:32.545Z,1.10
2022-08-30T14:13:15.653Z,0.70
2022-08-30T14:19:05.812Z,1.10
2022-08-30T14:21:51.225Z,1.70
2022-08-30T14:24:34.561Z,1.30
2022-08-30T14:27:18.741Z,1.00
2022-08-30T14:30:07.374Z,1.00
2022-08-30T14:32:50.454Z,1.50
2022-08-30T14:35:34.638Z,1.20
2022-08-30T14:38:17.736Z,1.20
2022-08-30T14:41:00.988Z,1.00
2022-08-30T14:43:44.355Z,0.90
2022-08-30T14:46:27.808Z,0.80
2022-08-30T14:49:12.693Z,0.90
2022-08-30T14:51:55.688Z,0.90
2022-08-30T14:54:38.543Z,0.60
2022-08-30T14:57:21.506Z,0.80
2022-08-30T15:00:08.667Z,1.40
2022-08-30T15:02:51.772Z,0.90
2022-08-30T15:05:34.633Z,0.50
2022-08-30T15:08:18.060Z,0.70
2022-08-30T15:11:02.163Z,1.20
2022-08-30T15:13:46.093Z,1.50
2022-08-30T15:16:33.163Z,0.70
2022-08-30T15:19:16.461Z,1.10
2022-08-30T15:22:06.028Z,0.80
2022-08-30T15:24:50.963Z,1.20
2022-08-30T15:27:34.094Z,1.10
2022-08-30T15:30:17.101Z,0.70
2022-08-30T15:33:12.400Z,1.50
2022-08-30T15:35:55.545Z,0.70
2022-08-30T15:38:38.812Z,0.90
2022-08-30T15:41:25.164Z,1.20
2022-08-30T15:44:11.470Z,1.00
2022-08-30T15:46:55.887Z,0.90
2022-08-30T15:49:40.112Z,12.40
2022-08-30T15:52:23.582Z,4.30
2022-08-30T15:55:07.380Z,2.80
2022-08-30T15:58:10.494Z,1.50
2022-08-30T16:00:55.655Z,1.20
2022-08-30T16:03:41.680Z,1.30
2022-08-30T16:06:28.456Z,2.30
2022-08-30T16:09:14.209Z,1.10
2022-08-30T16:11:57.301Z,1.10
2022-08-30T16:14:40.277Z,0.80
2022-08-30T16:17:24.242Z,4.70
2022-08-30T16:20:09.395Z,2.90
2022-08-30T16:22:54.764Z,1.80
2022-08-30T16:25:41.571Z,6.60
2022-08-30T16:28:29.111Z,2.60
2022-08-30T16:31:16.526Z,2.80
2022-08-30T16:34:02.818Z,2.80
2022-08-30T16:36:56.377Z,2.10
2022-08-30T16:39:49.014Z,2.30
2022-08-30T16:42:41.736Z,2.00
2022-08-30T16:45:32.507Z,2.00
2022-08-30T16:48:18.881Z,1.40
2022-08-30T16:51:15.113Z,2.00
2022-08-30T16:54:09.433Z,2.20
2022-08-30T16:57:08.398Z,1.80
2022-08-30T16:59:55.022Z,2.10
2022-08-30T17:02:53.668Z,2.10
2022-08-30T17:05:41.407Z,1.80
2022-08-30T17:08:34.135Z,1.30
2022-08-30T17:11:17.286Z,2.10
2022-08-30T17:14:04.092Z,2.10
2022-08-30T17:16:52.123Z,3.30
2022-08-30T17:19:43.052Z,1.70
2022-08-30T17:22:26.273Z,2.20
2022-08-30T17:25:10.340Z,2.50
2022-08-30T17:27:54.958Z,2.00
2022-08-30T17:30:41.072Z,2.00
2022-08-30T17:33:38.968Z,1.70
2022-08-30T17:36:42.416Z,1.90
2022-08-30T17:39:29.636Z,2.50
2022-08-30T17:42:16.789Z,1.60
2022-08-30T17:45:04.826Z,1.70
2022-08-30T17:47:50.289Z,1.60
2022-08-30T17:50:35.428Z,2.30
2022-08-30T17:53:29.359Z,2.30
2022-08-30T17:56:34.257Z,2.40
2022-08-30T17:59:24.823Z,2.00
2022-08-30T18:02:12.873Z,1.80
2022-08-30T18:05:04.751Z,2.30
2022-08-30T18:07:59.993Z,3.20
2022-08-30T18:10:45.939Z,2.80
2022-08-30T18:13:32.601Z,3.10
2022-08-30T18:16:16.154Z,2.60
2022-08-30T18:19:13.026Z,2.40
2022-08-30T18:21:57.210Z,2.90
2022-08-30T18:24:42.889Z,2.30
2022-08-30T18:27:32.105Z,1.90
2022-08-30T18:30:19.643Z,2.20
2022-08-30T18:33:06.676Z,1.90
2022-08-30T18:35:53.518Z,1.80
2022-08-30T18:38:38.158Z,2.60
2022-08-30T18:41:21.874Z,1.50
2022-08-30T18:44:27.876Z,1.70
2022-08-30T18:47:15.299Z,1.90
2022-08-30T18:50:08.747Z,2.00
2022-08-30T18:55:56.793Z,2.20
2022-08-30T18:58:44.399Z,2.10
2022-08-30T19:01:30.126Z,1.60
2022-08-30T19:04:22.575Z,1.50
2022-08-30T19:07:29.909Z,3.30
2022-08-30T19:10:22.540Z,1.80
2022-08-30T19:13:13.672Z,2.00
2022-08-30T19:15:56.909Z,1.90
2022-08-30T19:18:40.029Z,3.10
2022-08-30T19:21:27.916Z,2.40
2022-08-30T19:24:13.657Z,2.80
2022-08-30T19:27:09.761Z,2.10
2022-08-30T19:29:56.412Z,2.20
2022-08-30T19:33:00.190Z,1.90
2022-08-30T19:36:03.407Z,1.90
2022-08-30T19:38:49.245Z,1.90
2022-08-30T19:41:34.680Z,2.70
2022-08-30T19:44:18.693Z,2.10
2022-08-30T19:47:06.356Z,1.90
2022-08-30T19:49:52.162Z,1.60
2022-08-30T19:52:54.294Z,1.60
2022-08-30T19:55:49.012Z,2.40
2022-08-30T19:58:38.351Z,1.80
2022-08-30T20:01:32.731Z,1.40
2022-08-30T20:04:20.277Z,2.00
2022-08-30T20:07:26.210Z,2.30
2022-08-30T20:10:18.102Z,2.10
2022-08-30T20:13:06.459Z,1.90
2022-08-30T20:16:01.564Z,2.00
2022-08-30T20:19:06.095Z,1.50
2022-08-30T20:22:08.551Z,1.70
2022-08-30T20:25:10.894Z,1.80
2022-08-30T20:28:06.103Z,1.50
2022-08-30T20:31:25.059Z,2.00
2022-08-30T20:34:13.611Z,2.10
2022-08-30T20:37:18.020Z,1.80
2022-08-30T20:40:36.229Z,1.80
2022-08-30T20:43:42.125Z,2.20
2022-08-30T20:46:51.766Z,2.20
2022-08-30T20:49:51.468Z,1.70
2022-08-30T20:53:16.362Z,2.30
2022-08-30T20:56:16.809Z,1.70
2022-08-30T20:59:31.654Z,1.80
2022-08-30T21:02:48.286Z,1.90
2022-08-30T21:05:42.424Z,1.70
2022-08-30T21:09:00.703Z,1.50
2022-08-30T21:12:10.381Z,2.40
2022-08-30T21:15:33.877Z,1.60
2022-08-30T21:18:29.990Z,1.90
2022-08-30T21:21:30.462Z,1.90
2022-08-30T21:24:23.816Z,2.00
2022-08-30T21:27:06.953Z,1.60
2022-08-30T21:30:12.522Z,1.50
2022-08-30T21:33:18.593Z,2.40
2022-08-30T21:36:41.453Z,1.30
2022-08-30T21:39:29.659Z,2.00
2022-08-30T21:42:13.052Z,1.60
2022-08-30T21:45:07.441Z,1.60
2022-08-30T21:47:50.703Z,1.50
2022-08-30T21:50:36.878Z,1.50
2022-08-30T21:53:32.408Z,2.60
2022-08-30T21:56:36.776Z,1.60
2022-08-30T21:59:25.873Z,1.50
2022-08-30T22:02:14.052Z,1.20
2022-08-30T22:05:32.349Z,1.70
2022-08-30T22:08:18.712Z,1.50
2022-08-30T22:11:08.696Z,1.30
2022-08-30T22:14:21.597Z,2.30
2022-08-30T22:17:27.385Z,1.80
2022-08-30T22:20:18.527Z,2.40
2022-08-30T22:23:15.860Z,2.20
2022-08-30T22:26:34.142Z,1.40
2022-08-30T22:29:47.630Z,1.60
2022-08-30T22:32:43.130Z,1.80
2022-08-30T22:35:47.276Z,1.40
2022-08-30T22:38:33.565Z,1.90
2022-08-30T22:41:37.396Z,1.70
2022-08-30T22:44:29.482Z,1.70
2022-08-30T22:47:17.763Z,1.60
2022-08-30T22:50:06.875Z,1.50
2022-08-30T22:53:10.539Z,2.00
2022-08-30T22:55:59.144Z,1.50
2022-08-30T22:58:46.401Z,1.70
2022-08-30T23:01:40.114Z,1.40
2022-08-30T23:04:28.830Z,1.30
2022-08-30T23:07:26.837Z,1.40
2022-08-30T23:10:11.124Z,2.20
2022-08-30T23:13:22.409Z,1.80
2022-08-30T23:16:39.956Z,2.30
2022-08-30T23:20:03.912Z,1.70
2022-08-30T23:23:33.561Z,1.80
2022-08-30T23:26:48.783Z,1.70
2022-08-30T23:29:57.149Z,1.60
2022-08-30T23:33:23.908Z,2.00
2022-08-30T23:36:51.646Z,1.60
2022-08-30T23:39:56.653Z,1.80
2022-08-30T23:43:19.749Z,1.60
2022-08-30T23:46:34.324Z,1.50
2022-08-30T23:49:55.210Z,1.80
2022-08-30T23:53:18.476Z,2.10
2022-08-30T23:56:39.762Z,1.80
